Time;durP1;ratioP1;P1;durP2;ratioP2;P2;SDS_P1;SDS_P2;PMS_P1;PMS_P2;Temp;Humidity;BMP_temperature;BMP_pressure;BME280_temperature;BME280_humidity;BME280_pressure;Samples;Min_cycle;Max_cycle;Signal;HPM_P1;HPM_P2
2022/05/01 00:00:54;;;;;;;16.10;8.60;;;;;;;3.55;92.91;102586.53;4982744;28;20180;-72
2022/05/01 00:03:32;;;;;;;12.75;7.53;;;;;;;3.52;93.06;102588.28;4983623;28;20030;-73
2022/05/01 00:05:58;;;;;;;16.15;7.53;;;;;;;3.48;92.88;102586.47;4982673;28;20141;-72
2022/05/01 00:08:24;;;;;;;14.68;7.85;;;;;;;3.46;93.03;102585.56;4982462;28;20419;-73
2022/05/01 00:10:50;;;;;;;12.48;7.53;;;;;;;3.45;93.36;102580.31;4983120;28;20145;-73
2022/05/01 00:13:15;;;;;;;10.18;6.70;;;;;;;3.42;93.30;102577.66;4983003;28;20248;-73
2022/05/01 00:15:42;;;;;;;11.85;7.35;;;;;;;3.37;93.00;102575.88;4983707;28;20378;-73
2022/05/01 00:18:08;;;;;;;12.80;6.95;;;;;;;3.34;92.78;102575.84;4982528;28;20084;-73
2022/05/01 00:20:34;;;;;;;13.95;7.15;;;;;;;3.32;92.88;102574.91;4982665;28;20034;-73
2022/05/01 00:22:59;;;;;;;11.65;7.28;;;;;;;3.29;92.98;102574.00;4983015;28;20029;-73
2022/05/01 00:25:25;;;;;;;14.75;7.57;;;;;;;3.25;93.09;102570.47;4981987;28;20037;-73
2022/05/01 00:27:51;;;;;;;17.30;8.68;;;;;;;3.23;93.58;102573.06;4982892;28;20072;-73
2022/05/01 00:30:16;;;;;;;16.65;8.77;;;;;;;3.20;93.43;102564.28;4983000;28;20088;-73
2022/05/01 00:38:10;;;;;;;13.05;7.07;;;;;;;3.15;93.84;102566.84;4976427;28;20117;-73
2022/05/01 00:40:36;;;;;;;13.98;7.82;;;;;;;3.11;93.86;102567.69;4980826;28;20023;-73
2022/05/01 00:43:05;;;;;;;11.93;7.05;;;;;;;3.12;94.02;102570.28;4957048;28;20049;-73
2022/05/01 00:45:31;;;;;;;13.13;7.93;;;;;;;3.09;93.80;102572.00;4976458;28;20088;-73
2022/05/01 00:47:57;;;;;;;13.70;7.75;;;;;;;3.06;93.65;102570.22;4973773;28;20113;-73
2022/05/01 00:50:23;;;;;;;14.10;7.93;;;;;;;3.05;93.82;102578.94;4975121;28;20032;-73
2022/05/01 00:52:49;;;;;;;11.77;6.95;;;;;;;3.03;93.92;102564.94;4980395;28;20035;-74
2022/05/01 00:55:15;;;;;;;11.93;7.18;;;;;;;3.00;93.76;102572.78;4982083;28;20043;-73
2022/05/01 00:57:42;;;;;;;9.50;6.25;;;;;;;2.97;93.70;102567.47;4964959;28;20117;-73
2022/05/01 01:00:08;;;;;;;11.10;7.00;;;;;;;2.95;94.13;102570.06;4976421;28;20318;-73
2022/05/01 01:02:33;;;;;;;13.00;7.20;;;;;;;2.93;94.11;102560.44;4964225;28;20034;-73
2022/05/01 01:04:59;;;;;;;11.18;7.00;;;;;;;2.90;94.24;102555.16;4974047;28;20501;-73
2022/05/01 01:07:27;;;;;;;17.98;8.25;;;;;;;2.89;94.31;102559.50;4964604;28;20068;-73
2022/05/01 01:09:53;;;;;;;18.05;8.80;;;;;;;2.89;94.26;102558.66;4953146;28;20299;-73
2022/05/01 01:15:09;;;;;;;17.08;8.38;;;;;;;2.84;94.37;102554.22;4974536;28;20030;-73
2022/05/01 01:17:43;;;;;;;15.38;7.93;;;;;;;2.82;94.03;102558.56;4962875;28;20507;-73
2022/05/01 01:20:15;;;;;;;17.70;7.72;;;;;;;2.81;94.35;102561.13;4981953;28;20038;-73
2022/05/01 01:22:47;;;;;;;13.77;7.82;;;;;;;2.79;94.30;102555.00;4965073;28;20070;-73
2022/05/01 01:25:13;;;;;;;13.80;7.88;;;;;;;2.77;94.29;102562.84;4980966;28;20038;-74
2022/05/01 01:27:40;;;;;;;11.45;7.10;;;;;;;2.77;94.39;102556.75;4981305;28;20095;-73
2022/05/01 01:33:00;;;;;;;13.75;7.85;;;;;;;2.70;94.19;102553.13;4972251;28;20039;-73
2022/05/01 01:35:27;;;;;;;9.45;6.70;;;;;;;2.67;94.56;102553.09;4981917;28;21793;-73
2022/05/01 01:37:53;;;;;;;9.48;6.15;;;;;;;2.64;94.73;102561.78;4979940;28;20619;-73
2022/05/01 01:40:21;;;;;;;10.45;6.55;;;;;;;2.62;94.61;102562.59;4962640;28;20454;-73
2022/05/01 01:42:49;;;;;;;11.50;6.28;;;;;;;2.59;94.72;102552.97;4982090;28;20497;-73
2022/05/01 01:45:15;;;;;;;11.35;6.03;;;;;;;2.57;94.81;102555.56;4981582;28;20030;-73
2022/05/01 01:47:40;;;;;;;10.55;6.38;;;;;;;2.55;94.80;102549.44;4962832;28;20513;-74
2022/05/01 01:50:06;;;;;;;9.95;6.63;;;;;;;2.53;94.83;102555.50;4974461;28;21500;-73
2022/05/01 01:52:33;;;;;;;12.25;7.03;;;;;;;2.49;94.64;102554.56;4964641;28;20046;-73
2022/05/01 01:55:00;;;;;;;10.15;6.22;;;;;;;2.48;95.05;102563.28;4961536;28;20104;-73
2022/05/01 01:57:26;;;;;;;9.65;6.22;;;;;;;2.44;95.09;102561.44;4981467;28;20041;-73
2022/05/01 01:59:51;;;;;;;8.57;6.13;;;;;;;2.39;95.54;102553.53;4962922;28;20026;-73
2022/05/01 02:02:17;;;;;;;9.70;6.40;;;;;;;2.38;95.62;102558.72;4962778;28;20041;-73
2022/05/01 02:04:42;;;;;;;9.25;6.57;;;;;;;2.34;95.42;102552.56;4972242;28;20038;-73
2022/05/01 02:07:08;;;;;;;9.90;6.68;;;;;;;2.31;95.14;102548.16;4976177;28;20034;-73
2022/05/01 02:09:37;;;;;;;10.43;6.47;;;;;;;2.30;95.30;102548.16;4979376;28;20768;-73
2022/05/01 02:12:08;;;;;;;10.25;6.45;;;;;;;2.29;95.12;102544.66;4963752;28;20034;-73
2022/05/01 02:14:36;;;;;;;10.48;6.30;;;;;;;2.27;94.86;102543.78;4968776;28;20760;-73
2022/05/01 02:17:05;;;;;;;10.80;6.55;;;;;;;2.26;94.94;102544.63;4974106;28;20419;-73
2022/05/01 02:19:30;;;;;;;12.50;6.57;;;;;;;2.25;94.81;102550.72;4970585;28;20381;-73
2022/05/01 02:21:56;;;;;;;10.48;6.82;;;;;;;2.24;95.04;102542.84;4975375;28;20100;-73
2022/05/01 02:24:25;;;;;;;10.05;6.55;;;;;;;2.23;94.79;102549.78;4979692;28;20096;-73
2022/05/01 02:26:50;;;;;;;8.73;6.35;;;;;;;2.22;95.13;102542.81;4981458;28;20056;-73
2022/05/01 02:29:16;;;;;;;8.98;6.50;;;;;;;2.21;95.18;102541.06;4980879;28;20477;-73
2022/05/01 02:31:43;;;;;;;10.48;6.65;;;;;;;2.21;95.15;102537.53;4971903;28;20453;-73
2022/05/01 02:34:10;;;;;;;10.75;6.22;;;;;;;2.18;94.99;102535.75;4956323;28;20049;-73
2022/05/01 02:36:35;;;;;;;9.82;6.03;;;;;;;2.16;95.02;102540.09;4949766;28;20041;-73
2022/05/01 02:39:01;;;;;;;10.45;5.80;;;;;;;2.15;94.88;102533.09;4967832;28;20135;-73
2022/05/01 02:41:28;;;;;;;10.35;6.00;;;;;;;2.14;95.08;102536.56;4977668;28;20087;-73
2022/05/01 02:43:54;;;;;;;7.75;5.50;;;;;;;2.12;95.09;102541.75;4951647;28;20061;-73
2022/05/01 02:46:19;;;;;;;8.02;5.45;;;;;;;2.11;95.04;102528.66;4963049;28;20132;-73
2022/05/01 02:48:45;;;;;;;9.38;6.13;;;;;;;2.08;95.22;102532.13;4953826;28;20218;-73
2022/05/01 02:51:10;;;;;;;9.80;6.30;;;;;;;2.08;95.16;102536.47;4985485;28;20089;-73
2022/05/01 02:53:37;;;;;;;10.48;6.22;;;;;;;2.07;95.44;102537.31;4967533;28;20556;-73
2022/05/01 02:56:02;;;;;;;9.07;5.90;;;;;;;2.06;95.58;102530.34;4985199;28;20478;-73
2022/05/01 02:58:30;;;;;;;11.10;6.00;;;;;;;2.03;95.36;102526.81;4969080;28;20030;-73
2022/05/01 03:00:56;;;;;;;12.18;6.85;;;;;;;2.02;95.71;102532.88;4984086;28;20224;-73
2022/05/01 03:03:21;;;;;;;8.27;6.07;;;;;;;2.00;95.68;102529.38;4968124;28;20033;-73
2022/05/01 03:05:47;;;;;;;10.00;6.40;;;;;;;1.99;95.75;102521.50;4985081;28;20150;-73
2022/05/01 03:08:13;;;;;;;10.18;6.00;;;;;;;1.97;95.91;102518.00;4984884;28;20049;-73
2022/05/01 03:10:39;;;;;;;9.20;5.70;;;;;;;1.95;95.55;102520.56;4953964;28;20125;-73
2022/05/01 03:13:05;;;;;;;8.85;5.88;;;;;;;1.93;96.11;102522.28;4969123;28;20065;-71
2022/05/01 03:15:30;;;;;;;8.80;5.82;;;;;;;1.93;95.78;102522.28;4983514;28;20494;-72
2022/05/01 03:23:24;;;;;;;7.70;5.20;;;;;;;1.86;96.05;102523.03;4985242;28;20042;-72
2022/05/01 03:25:50;;;;;;;8.65;5.55;;;;;;;1.84;96.24;102516.88;4983301;28;20572;-72
2022/05/01 03:28:15;;;;;;;7.82;5.35;;;;;;;1.82;96.35;102514.25;4975894;28;20576;-72
2022/05/01 03:30:41;;;;;;;7.60;5.10;;;;;;;1.82;96.50;102519.50;4977874;28;20041;-72
2022/05/01 03:33:07;;;;;;;8.20;5.50;;;;;;;1.79;96.22;102516.81;4967514;28;20028;-72
2022/05/01 03:35:35;;;;;;;6.57;4.43;;;;;;;1.79;96.68;102518.56;4986528;28;20250;-72
2022/05/01 03:38:02;;;;;;;6.50;4.85;;;;;;;1.78;96.64;102519.41;4976168;28;20038;-72
2022/05/01 03:40:28;;;;;;;6.95;4.65;;;;;;;1.74;96.34;102508.88;4966354;28;20037;-72
2022/05/01 03:42:54;;;;;;;7.45;4.78;;;;;;;1.74;96.41;102510.63;4979106;28;20038;-72
2022/05/01 03:45:20;;;;;;;8.32;5.35;;;;;;;1.71;96.40;102524.53;4985776;28;20485;-72
2022/05/01 03:47:46;;;;;;;9.13;6.07;;;;;;;1.68;96.64;102516.59;4977507;28;20034;-72
2022/05/01 03:50:11;;;;;;;10.57;5.95;;;;;;;1.68;96.38;102519.22;4984779;28;20414;-72
2022/05/01 03:52:37;;;;;;;9.25;5.68;;;;;;;1.67;96.44;102521.78;4978521;28;20068;-72
2022/05/01 03:55:03;;;;;;;9.15;5.82;;;;;;;1.65;96.51;102521.78;4984912;28;20034;-72
2022/05/01 03:57:29;;;;;;;8.73;5.75;;;;;;;1.65;96.33;102527.00;4953944;28;20535;-72
2022/05/01 03:59:54;;;;;;;10.88;6.18;;;;;;;1.64;96.53;102527.88;4966919;28;20048;-72
2022/05/01 04:02:20;;;;;;;10.25;5.57;;;;;;;1.61;96.61;102515.63;4971443;28;20048;-72
2022/05/01 04:04:48;;;;;;;8.15;5.60;;;;;;;1.61;96.57;102525.19;4957782;28;20035;-72
2022/05/01 04:07:13;;;;;;;8.02;5.68;;;;;;;1.63;97.17;102528.69;4972532;28;20501;-72
2022/05/01 04:09:39;;;;;;;10.10;5.50;;;;;;;1.63;96.92;102529.59;4985350;28;20136;-72
2022/05/01 04:12:05;;;;;;;9.00;5.82;;;;;;;1.60;97.14;102529.53;4977281;28;20057;-72
2022/05/01 04:14:32;;;;;;;8.45;4.82;;;;;;;1.61;96.89;102530.41;4985454;28;20188;-72
2022/05/01 04:16:59;;;;;;;8.13;5.15;;;;;;;1.61;96.73;102530.41;4955340;28;20085;-72
2022/05/01 04:19:25;;;;;;;10.57;5.88;;;;;;;1.60;96.89;102531.25;4981697;28;20692;-72
2022/05/01 04:21:50;;;;;;;6.90;5.30;;;;;;;1.61;97.06;102533.00;4979192;28;20029;-71
2022/05/01 04:24:16;;;;;;;6.57;4.93;;;;;;;1.59;97.23;102527.75;4973936;28;20124;-71
2022/05/01 04:26:41;;;;;;;9.60;5.57;;;;;;;1.58;96.96;102530.38;4978121;28;20394;-71
2022/05/01 04:31:51;;;;;;;8.52;5.57;;;;;;;1.57;97.21;102529.47;4983092;28;20214;-71
2022/05/01 04:34:17;;;;;;;6.70;4.30;;;;;;;1.59;97.45;102537.34;4984158;28;20026;-72
2022/05/01 04:36:43;;;;;;;7.40;5.50;;;;;;;1.59;97.29;102529.50;4977663;28;20381;-72
2022/05/01 04:39:08;;;;;;;7.90;4.93;;;;;;;1.61;97.32;102535.63;4983816;28;20034;-72
2022/05/01 04:41:34;;;;;;;8.68;4.95;;;;;;;1.63;97.10;102533.91;4976893;28;20227;-72
2022/05/01 04:44:00;;;;;;;6.13;4.55;;;;;;;1.64;97.02;102530.47;4983962;28;20498;-71
2022/05/01 04:46:25;;;;;;;6.55;4.75;;;;;;;1.67;97.32;102527.91;4958712;28;20084;-72
2022/05/01 04:48:51;;;;;;;9.10;5.35;;;;;;;1.71;97.72;102536.69;4977240;28;20498;-72
2022/05/01 04:51:16;;;;;;;8.77;5.88;;;;;;;1.73;97.60;102533.25;4967583;28;20450;-72
2022/05/01 04:53:42;;;;;;;8.23;5.35;;;;;;;1.75;97.69;102535.91;4982706;28;20497;-72
2022/05/01 04:58:51;;;;;;;6.70;4.70;;;;;;;1.83;97.86;102536.91;4977347;28;20089;-72
2022/05/01 05:01:17;;;;;;;6.95;5.00;;;;;;;1.88;97.95;102539.59;4961180;28;20125;-72
2022/05/01 05:03:43;;;;;;;7.28;5.35;;;;;;;1.92;97.84;102538.81;4974008;28;20077;-72
2022/05/01 05:06:08;;;;;;;7.47;4.90;;;;;;;1.98;98.21;102540.66;4966865;28;20156;-72
2022/05/01 05:11:18;;;;;;;7.68;4.47;;;;;;;2.20;99.84;102547.13;4984958;28;20262;-72
2022/05/01 05:13:43;;;;;;;6.55;4.40;;;;;;;2.29;100.00;102544.66;4966853;28;20037;-72
2022/05/01 05:16:13;;;;;;;6.38;4.68;;;;;;;2.39;100.00;102550.94;4985503;28;20034;-71
2022/05/01 05:18:40;;;;;;;6.60;5.00;;;;;;;2.47;100.00;102545.84;4985555;28;20112;-71
2022/05/01 05:21:06;;;;;;;6.93;4.85;;;;;;;2.53;100.00;102551.16;4985206;28;20473;-72
2022/05/01 05:23:32;;;;;;;6.22;4.95;;;;;;;2.60;100.00;102549.50;4967859;28;20101;-72
2022/05/01 05:25:57;;;;;;;6.38;4.95;;;;;;;2.65;100.00;102554.78;4984378;28;20121;-72
2022/05/01 05:28:23;;;;;;;8.20;5.50;;;;;;;2.71;100.00;102558.41;4977119;28;20044;-72
2022/05/01 05:30:49;;;;;;;8.50;5.72;;;;;;;2.80;100.00;102560.28;4970171;28;20118;-72
2022/05/01 05:33:15;;;;;;;7.88;5.97;;;;;;;2.89;100.00;102567.34;4965025;28;20026;-72
2022/05/01 05:35:41;;;;;;;8.88;6.43;;;;;;;2.98;100.00;102569.22;4983592;28;20034;-72
2022/05/01 05:38:06;;;;;;;7.85;5.80;;;;;;;3.10;100.00;102564.16;4981201;28;20032;-73
2022/05/01 05:40:32;;;;;;;6.88;5.47;;;;;;;3.24;100.00;102568.72;4983367;28;20029;-73
2022/05/01 05:42:57;;;;;;;8.68;6.05;;;;;;;3.35;100.00;102568.84;4976159;28;20046;-73
2022/05/01 05:45:23;;;;;;;8.35;5.78;;;;;;;3.48;100.00;102567.28;4952080;28;20312;-73
2022/05/01 05:47:48;;;;;;;8.18;5.60;;;;;;;3.62;100.00;102565.69;4971047;28;20033;-73
2022/05/01 05:50:14;;;;;;;8.45;6.30;;;;;;;3.79;100.00;102564.97;4967370;28;20124;-73
2022/05/01 05:52:40;;;;;;;9.45;6.20;;;;;;;3.96;100.00;102573.00;4966559;28;20606;-73
2022/05/01 05:55:06;;;;;;;10.10;6.32;;;;;;;4.13;100.00;102573.19;4950986;28;20084;-73
2022/05/01 05:57:32;;;;;;;11.70;7.00;;;;;;;4.42;100.00;102572.53;4944653;28;20430;-73
2022/05/01 05:59:57;;;;;;;12.80;7.03;;;;;;;4.78;100.00;102570.19;4976412;28;20307;-72
2022/05/01 06:02:23;;;;;;;9.68;7.18;;;;;;;5.06;100.00;102566.88;4984943;28;20149;-73
2022/05/01 06:04:48;;;;;;;13.90;7.65;;;;;;;5.32;100.00;102568.75;4982259;28;20373;-73
2022/05/01 06:07:14;;;;;;;11.70;7.25;;;;;;;5.55;100.00;102569.69;4982866;28;20120;-73
2022/05/01 06:09:39;;;;;;;8.48;6.07;;;;;;;5.80;100.00;102561.00;4983466;28;20051;-71
2022/05/01 06:12:05;;;;;;;7.65;5.80;;;;;;;6.04;100.00;102565.44;4988063;28;20034;-71
2022/05/01 06:14:31;;;;;;;8.93;5.20;;;;;;;6.23;100.00;102568.97;4973177;28;20057;-71
2022/05/01 06:16:56;;;;;;;10.07;5.68;;;;;;;6.41;100.00;102571.59;4968338;28;20528;-71
2022/05/01 06:19:21;;;;;;;9.65;5.63;;;;;;;6.56;99.90;102568.09;4988240;28;20578;-71
2022/05/01 06:21:47;;;;;;;7.47;5.20;;;;;;;6.74;100.00;102570.69;4987264;28;20029;-72
2022/05/01 06:24:12;;;;;;;7.00;5.28;;;;;;;6.97;99.46;102569.75;4969554;28;20038;-74
2022/05/01 06:26:38;;;;;;;6.80;4.85;;;;;;;7.20;99.54;102567.06;4986677;28;20030;-72
2022/05/01 06:29:04;;;;;;;8.05;5.60;;;;;;;7.45;98.64;102564.34;4985676;28;20348;-72
2022/05/01 06:31:30;;;;;;;9.32;4.72;;;;;;;7.64;97.75;102566.88;4985299;28;20026;-72
2022/05/01 06:33:55;;;;;;;8.07;5.38;;;;;;;7.82;97.89;102567.63;4955536;28;20065;-72
2022/05/01 06:36:21;;;;;;;7.05;4.60;;;;;;;8.09;98.10;102561.31;4984526;28;20109;-72
2022/05/01 06:38:47;;;;;;;6.20;4.85;;;;;;;8.30;96.99;102562.03;4967076;28;20710;-72
2022/05/01 06:41:13;;;;;;;7.40;4.95;;;;;;;8.44;96.61;102559.25;4974388;28;20068;-73
2022/05/01 06:43:38;;;;;;;6.30;4.75;;;;;;;8.60;96.43;102557.38;4980034;28;20413;-72
2022/05/01 06:46:04;;;;;;;8.50;4.88;;;;;;;8.81;95.69;102561.59;4976686;28;20045;-72
2022/05/01 06:48:30;;;;;;;6.50;4.30;;;;;;;9.05;95.41;102554.25;4955614;28;20508;-72
2022/05/01 06:50:55;;;;;;;5.97;4.45;;;;;;;9.24;94.80;102554.94;4985345;28;20030;-72
2022/05/01 06:53:21;;;;;;;7.32;5.22;;;;;;;9.42;95.14;102554.72;4980064;28;20034;-72
2022/05/01 06:55:46;;;;;;;7.82;5.05;;;;;;;9.61;93.76;102558.88;4984770;28;20023;-72
2022/05/01 06:58:12;;;;;;;7.35;4.78;;;;;;;9.76;93.45;102559.53;4970690;28;20030;-72
2022/05/01 07:00:37;;;;;;;6.80;5.05;;;;;;;9.93;92.42;102564.56;4983767;28;20044;-72
2022/05/01 07:03:03;;;;;;;7.32;4.28;;;;;;;10.11;92.30;102558.13;4980856;28;20608;-72
2022/05/01 07:05:29;;;;;;;7.07;3.97;;;;;;;10.12;91.14;102558.97;4985296;28;20461;-73
2022/05/01 07:07:54;;;;;;;4.80;3.83;;;;;;;10.11;91.01;102552.81;4974709;28;20574;-72
2022/05/01 07:10:21;;;;;;;5.72;4.10;;;;;;;10.16;90.30;102553.63;4981364;28;20456;-72
2022/05/01 07:12:47;;;;;;;6.38;4.30;;;;;;;10.32;90.09;102556.91;4976310;28;20385;-72
2022/05/01 07:15:13;;;;;;;4.70;3.70;;;;;;;10.39;89.86;102560.31;4975826;28;20026;-72
2022/05/01 07:17:39;;;;;;;5.78;4.32;;;;;;;10.48;89.67;102555.78;4981614;28;20026;-72
2022/05/01 07:20:04;;;;;;;6.15;4.20;;;;;;;10.65;89.32;102561.66;4981154;28;20037;-72
2022/05/01 07:22:30;;;;;;;5.78;3.90;;;;;;;10.90;89.79;102566.47;4967283;28;20054;-72
2022/05/01 07:24:56;;;;;;;5.28;3.92;;;;;;;10.98;88.13;102561.03;4979288;28;20034;-72
2022/05/01 07:27:22;;;;;;;5.05;3.80;;;;;;;11.12;88.49;102563.41;4986386;28;20156;-72
2022/05/01 07:29:47;;;;;;;6.68;3.75;;;;;;;11.12;87.48;102564.28;4966236;28;20038;-72
2022/05/01 07:32:13;;;;;;;5.07;3.83;;;;;;;11.16;86.88;102570.38;4960968;28;20454;-72
2022/05/01 07:34:38;;;;;;;4.07;3.30;;;;;;;11.18;86.82;102565.94;4980006;28;20062;-72
2022/05/01 07:37:04;;;;;;;9.38;3.45;;;;;;;11.27;86.92;102557.78;4991750;28;20129;-74
2022/05/01 07:39:30;;;;;;;3.97;2.90;;;;;;;11.26;85.58;102557.81;4972342;28;20061;-80
2022/05/01 07:41:56;;;;;;;4.10;2.95;;;;;;;11.27;84.40;102552.47;4971217;28;20026;-76
2022/05/01 07:44:21;;;;;;;3.75;2.97;;;;;;;11.26;84.12;102561.34;4940760;28;20032;-82
2022/05/01 07:46:47;;;;;;;6.55;3.17;;;;;;;11.33;85.63;102555.91;4972974;28;20084;-80
2022/05/01 07:49:13;;;;;;;4.50;3.25;;;;;;;11.38;83.71;102560.22;4975837;28;20042;-79
2022/05/01 07:51:38;;;;;;;3.25;2.95;;;;;;;11.31;83.74;102557.72;4986086;28;20038;-81
2022/05/01 07:54:04;;;;;;;4.03;3.00;;;;;;;11.31;82.36;102560.34;4969688;28;20038;-78
2022/05/01 07:56:31;;;;;;;4.45;2.67;;;;;;;11.31;81.60;102553.28;4987035;28;20069;-79
2022/05/01 07:58:57;;;;;;;4.50;2.90;;;;;;;11.22;82.38;102553.50;4979422;28;20041;-79
2022/05/01 08:01:22;;;;;;;4.72;3.17;;;;;;;11.04;81.88;102547.66;4967546;28;20049;-79
2022/05/01 08:06:33;;;;;;;4.15;3.00;;;;;;;11.05;81.47;102553.84;4986375;28;20048;-79
2022/05/01 08:08:58;;;;;;;4.25;3.03;;;;;;;10.97;81.88;102554.00;4987854;28;20440;-77
2022/05/01 08:11:24;;;;;;;4.10;3.10;;;;;;;10.80;79.61;102546.38;4986381;28;20053;-76
2022/05/01 08:13:50;;;;;;;3.78;3.00;;;;;;;10.70;80.61;102546.56;4987386;28;20480;-75
2022/05/01 08:16:17;;;;;;;3.53;2.83;;;;;;;10.62;80.46;102551.09;4984531;28;20877;-76
2022/05/01 08:21:31;;;;;;;2.92;2.45;;;;;;;10.56;79.73;102548.56;4984423;28;20141;-75
2022/05/01 08:23:57;;;;;;;4.13;2.60;;;;;;;10.52;78.97;102545.09;4973054;28;20122;-75
2022/05/01 08:26:23;;;;;;;3.38;2.85;;;;;;;10.56;80.23;102549.44;4981872;28;20030;-75
2022/05/01 08:28:51;;;;;;;4.72;3.40;;;;;;;10.64;78.80;102545.78;4982385;28;20042;-75
2022/05/01 08:31:17;;;;;;;3.90;3.05;;;;;;;10.81;79.46;102543.69;4985525;28;20030;-77
2022/05/01 08:33:42;;;;;;;3.13;2.78;;;;;;;11.04;79.25;102549.41;4976025;28;20045;-77
2022/05/01 08:36:08;;;;;;;4.63;2.80;;;;;;;11.27;79.65;102544.53;4984826;28;20667;-78
2022/05/01 08:38:37;;;;;;;2.97;2.67;;;;;;;11.50;78.99;102551.09;4985599;28;20941;-78
2022/05/01 08:41:03;;;;;;;3.67;3.17;;;;;;;11.74;77.42;102546.16;4979925;28;20497;-77
2022/05/01 08:43:29;;;;;;;4.53;2.88;;;;;;;11.93;77.20;102546.59;4985291;28;20030;-77
2022/05/01 08:46:07;;;;;;;5.05;2.80;;;;;;;12.06;75.45;102543.69;4980295;28;20092;-76
2022/05/01 08:48:36;;;;;;;4.45;2.95;;;;;;;12.23;75.29;102543.25;4983312;28;20112;-75
2022/05/01 08:51:03;;;;;;;4.63;2.92;;;;;;;12.44;75.20;102540.97;4981044;28;20060;-75
2022/05/01 08:53:29;;;;;;;3.75;2.85;;;;;;;12.65;74.42;102538.63;4977196;28;20034;-75
2022/05/01 08:55:59;;;;;;;4.47;3.03;;;;;;;12.87;74.62;102529.13;4983319;28;20056;-75
2022/05/01 08:58:26;;;;;;;3.83;2.97;;;;;;;13.06;73.73;102539.25;4986494;28;20164;-75
2022/05/01 09:00:52;;;;;;;3.72;3.03;;;;;;;13.23;74.32;102538.75;4968928;28;20026;-75
2022/05/01 09:03:18;;;;;;;6.93;3.08;;;;;;;13.31;72.80;102534.06;4981594;28;20191;-75
2022/05/01 09:05:44;;;;;;;3.28;2.83;;;;;;;13.31;72.55;102533.22;4977698;28;22239;-75
2022/05/01 09:08:10;;;;;;;3.88;2.80;;;;;;;13.25;72.48;102530.75;4967304;28;20051;-76
2022/05/01 09:10:36;;;;;;;2.83;2.53;;;;;;;13.30;72.27;102534.16;4976452;28;20050;-71
2022/05/01 09:13:02;;;;;;;3.25;2.67;;;;;;;13.28;72.33;102534.19;5003309;28;20099;-69
2022/05/01 09:15:40;;;;;;;5.00;3.00;;;;;;;13.28;69.01;102535.97;5003106;28;20679;-69
2022/05/01 09:18:14;;;;;;;3.47;3.00;;;;;;;13.28;69.34;102538.63;4985672;28;20092;-69
2022/05/01 09:21:07;;;;;;;3.03;2.72;;;;;;;13.28;67.85;102533.28;4986235;28;20030;-69
2022/05/01 09:23:40;;;;;;;2.88;2.65;;;;;;;13.04;69.04;102539.28;5004116;28;20104;-69
2022/05/01 09:26:07;;;;;;;5.20;2.80;;;;;;;12.81;70.58;102541.75;4986102;28;20558;-70
2022/05/01 09:28:33;;;;;;;5.72;3.17;;;;;;;12.67;69.79;102531.47;4992149;28;21533;-70
2022/05/01 09:30:59;;;;;;;3.38;2.60;;;;;;;12.65;69.60;102534.22;5000514;28;20045;-70
2022/05/01 09:33:25;;;;;;;2.97;2.63;;;;;;;12.70;70.21;102540.25;4981732;28;20064;-70
2022/05/01 09:35:51;;;;;;;4.13;2.95;;;;;;;12.70;70.11;102526.09;4985685;28;20396;-70
2022/05/01 09:38:18;;;;;;;4.10;2.53;;;;;;;12.65;70.28;102536.88;4986746;28;20033;-70
2022/05/01 09:40:48;;;;;;;3.88;2.42;;;;;;;12.58;69.99;102533.50;4992887;28;20227;-70
2022/05/01 09:43:41;;;;;;;5.18;2.50;;;;;;;12.47;68.13;102528.47;4989457;28;20037;-71
2022/05/01 09:46:29;;;;;;;3.55;2.60;;;;;;;12.48;66.72;102524.88;5002592;28;20061;-70
2022/05/01 09:49:15;;;;;;;3.20;2.90;;;;;;;12.48;67.38;102526.69;5002669;28;20074;-70
2022/05/01 09:51:47;;;;;;;4.03;2.78;;;;;;;12.53;68.85;102524.75;5002672;28;20351;-70
2022/05/01 09:54:23;;;;;;;4.78;3.15;;;;;;;12.49;67.14;102534.59;4999844;28;20038;-70
2022/05/01 09:57:00;;;;;;;3.22;2.92;;;;;;;12.41;66.30;102527.78;4983603;28;20034;-72
2022/05/01 09:59:28;;;;;;;5.32;3.28;;;;;;;12.31;67.47;102533.31;5003872;28;20034;-76
2022/05/01 10:02:02;;;;;;;3.97;2.97;;;;;;;12.28;66.51;102537.81;5002143;28;20030;-75
2022/05/01 10:04:29;;;;;;;6.32;3.25;;;;;;;12.26;67.94;102532.53;5002746;28;20044;-75
2022/05/01 10:06:56;;;;;;;4.03;2.78;;;;;;;12.11;65.85;102528.50;4989118;28;20029;-75
2022/05/01 10:09:30;;;;;;;4.18;3.13;;;;;;;12.09;65.27;102530.31;4972454;28;20214;-75
2022/05/01 10:11:59;;;;;;;3.97;3.08;;;;;;;12.04;65.32;102527.78;4980616;28;20366;-75
2022/05/01 10:14:26;;;;;;;3.65;2.90;;;;;;;11.93;65.73;102529.81;4984365;28;20034;-71
2022/05/01 10:16:54;;;;;;;3.10;2.70;;;;;;;11.85;66.20;102529.09;4976944;28;20179;-72
2022/05/01 10:19:21;;;;;;;4.03;2.78;;;;;;;11.84;66.91;102530.00;4979366;28;20491;-71
2022/05/01 10:21:48;;;;;;;3.65;2.97;;;;;;;11.97;66.20;102531.47;4973895;28;20535;-71
2022/05/01 10:24:14;;;;;;;3.97;3.08;;;;;;;12.05;66.55;102523.34;4981665;28;20543;-71
2022/05/01 10:26:58;;;;;;;4.88;3.17;;;;;;;12.18;65.81;102519.47;4973145;28;20370;-71
2022/05/01 10:33:01;;;;;;;4.35;3.08;;;;;;;12.48;64.35;102521.38;4975058;28;20065;-71
2022/05/01 10:35:39;;;;;;;3.92;3.00;;;;;;;12.52;64.19;102511.53;4940540;28;20042;-72
2022/05/01 10:38:41;;;;;;;4.60;3.20;;;;;;;12.58;63.05;102517.53;4979234;28;20104;-72
2022/05/01 10:41:10;;;;;;;3.97;3.00;;;;;;;12.63;64.38;102509.44;4972979;28;20510;-72
2022/05/01 10:43:37;;;;;;;3.35;2.58;;;;;;;12.70;63.89;102504.84;4960256;28;20370;-72
2022/05/01 10:46:15;;;;;;;3.15;2.70;;;;;;;12.71;63.51;102498.59;4975331;28;20102;-71
2022/05/01 10:48:41;;;;;;;2.95;2.63;;;;;;;12.73;63.46;102505.63;4976105;28;20038;-72
2022/05/01 10:51:47;;;;;;;3.33;2.80;;;;;;;12.80;61.68;102501.00;4959221;28;21486;-71
2022/05/01 10:54:13;;;;;;;2.95;2.35;;;;;;;12.90;63.90;102490.97;4927504;28;20443;-71
2022/05/01 10:56:40;;;;;;;6.93;3.28;;;;;;;13.07;63.03;102493.13;4925421;28;20030;-71
2022/05/01 10:59:30;;;;;;;2.63;2.35;;;;;;;13.19;61.85;102486.59;4928836;28;20047;-71
2022/05/01 11:02:38;;;;;;;3.25;2.50;;;;;;;13.29;61.20;102484.53;4942512;28;21724;-71
2022/05/01 11:05:04;;;;;;;4.00;2.95;;;;;;;13.27;62.89;102483.69;4944448;28;20078;-72
2022/05/01 11:07:34;;;;;;;4.07;2.67;;;;;;;13.39;61.17;102485.09;4945211;28;20043;-71
2022/05/01 11:10:00;;;;;;;3.40;2.65;;;;;;;13.44;62.06;102489.38;4944368;28;20047;-72
2022/05/01 11:12:27;;;;;;;3.58;2.63;;;;;;;13.46;62.18;102488.47;4934187;28;20314;-71
2022/05/01 11:14:57;;;;;;;3.55;2.30;;;;;;;13.55;62.06;102485.50;4945020;28;20047;-71
2022/05/01 11:17:49;;;;;;;3.72;2.67;;;;;;;13.67;60.39;102482.47;4944052;28;21611;-70
2022/05/01 11:20:21;;;;;;;2.65;2.35;;;;;;;13.72;59.46;102474.31;4943677;28;20031;-71
2022/05/01 11:22:47;;;;;;;2.97;2.47;;;;;;;13.73;59.57;102469.88;4942716;28;20035;-71
2022/05/01 11:25:37;;;;;;;2.97;2.35;;;;;;;13.74;57.37;102467.19;4943646;28;20323;-71
2022/05/01 11:28:03;;;;;;;2.55;2.20;;;;;;;13.73;59.15;102468.06;4976232;28;20432;-70
2022/05/01 11:30:31;;;;;;;3.50;2.45;;;;;;;13.73;59.41;102465.41;4964812;28;20053;-74
2022/05/01 11:33:11;;;;;;;2.83;2.22;;;;;;;13.77;58.88;102468.88;4981097;28;20042;-74
2022/05/01 11:35:58;;;;;;;3.15;2.28;;;;;;;13.79;58.05;102462.56;4966188;28;20380;-73
2022/05/01 11:38:34;;;;;;;2.88;2.30;;;;;;;13.63;57.02;102462.22;4980450;28;20122;-75
2022/05/01 11:41:02;;;;;;;3.03;2.33;;;;;;;13.56;59.33;102463.31;4949330;28;20036;-77
2022/05/01 11:43:29;;;;;;;2.45;2.25;;;;;;;13.44;58.93;102457.44;4983034;28;20042;-76
2022/05/01 11:46:05;;;;;;;3.55;2.17;;;;;;;13.48;58.29;102460.91;4981644;28;20127;-77
2022/05/01 11:48:31;;;;;;;2.70;2.30;;;;;;;13.53;58.60;102460.75;4967251;28;20042;-74
2022/05/01 11:50:59;;;;;;;4.38;2.20;;;;;;;13.49;59.10;102456.44;4978958;28;20247;-74
2022/05/01 11:53:27;;;;;;;2.58;2.22;;;;;;;13.50;59.11;102451.06;4985171;28;20036;-74
2022/05/01 12:04:28;;;;;;;1.90;1.70;;;;;;;13.62;55.34;102441.81;4970285;28;20463;-75
2022/05/01 12:07:17;;;;;;;2.40;2.20;;;;;;;13.71;56.42;102441.53;4986257;28;20575;-82
2022/05/01 12:09:44;;;;;;;2.17;1.80;;;;;;;13.65;57.71;102435.53;4986629;28;20053;-81
2022/05/01 12:12:16;;;;;;;2.30;2.10;;;;;;;13.47;56.02;102435.22;4974454;28;20115;-81